createdAt,value
2018-04-07T00:00:50.434Z,51.64
2018-04-07T00:01:50.427Z,51.54
2018-04-07T00:02:50.437Z,51.73
2018-04-07T00:03:50.464Z,51.54
2018-04-07T00:04:50.451Z,51.64
2018-04-07T00:05:50.463Z,52.01
2018-04-07T00:06:50.470Z,51.82
2018-04-07T00:07:50.471Z,51.92
2018-04-07T00:08:50.472Z,51.73
2018-04-07T00:09:50.495Z,51.73
2018-04-07T00:10:50.501Z,51.64
2018-04-07T00:11:50.496Z,52.01
2018-04-07T00:12:50.510Z,51.92
2018-04-07T00:13:50.521Z,51.82
2018-04-07T00:14:50.517Z,52.11
2018-04-07T00:15:50.528Z,51.82
2018-04-07T00:16:50.531Z,52.20
2018-04-07T00:17:50.536Z,51.92
2018-04-07T00:18:50.554Z,52.49
2018-04-07T00:19:50.554Z,52.30
2018-04-07T00:20:50.556Z,52.30
2018-04-07T00:21:50.562Z,52.49
2018-04-07T00:22:50.566Z,52.49
2018-04-07T00:23:50.574Z,52.49
2018-04-07T00:24:50.583Z,52.59
2018-04-07T00:25:50.597Z,52.49
2018-04-07T00:26:50.598Z,52.68
2018-04-07T00:27:50.611Z,52.97
2018-04-07T00:28:50.613Z,52.87
2018-04-07T00:29:50.614Z,52.40
2018-04-07T00:30:50.627Z,52.97
2018-04-07T00:31:50.632Z,52.87
2018-04-07T00:32:50.631Z,52.49
2018-04-07T00:33:50.639Z,53.06
2018-04-07T00:34:50.658Z,52.97
2018-04-07T00:35:50.662Z,53.06
2018-04-07T00:36:50.663Z,53.06
2018-04-07T00:37:50.673Z,53.06
2018-04-07T00:38:50.678Z,53.06
2018-04-07T00:39:50.679Z,53.25
2018-04-07T00:40:50.696Z,53.25
2018-04-07T00:41:50.770Z,53.06
2018-04-07T00:42:50.704Z,53.06
2018-04-07T00:43:50.714Z,53.25
2018-04-07T00:44:50.732Z,53.16
2018-04-07T00:45:50.726Z,53.16
2018-04-07T00:46:50.735Z,53.25
2018-04-07T00:47:50.740Z,53.35
2018-04-07T00:48:50.738Z,53.35
2018-04-07T00:49:50.753Z,53.61
2018-04-07T00:50:50.753Z,53.70
2018-04-07T00:51:51.378Z,53.70
2018-04-07T00:52:50.772Z,53.73
2018-04-07T00:53:50.778Z,53.73
2018-04-07T00:54:50.788Z,53.83
2018-04-07T00:55:50.796Z,53.70
2018-04-07T00:56:50.796Z,53.89
2018-04-07T00:57:50.806Z,53.52
2018-04-07T00:58:50.807Z,54.18
2018-04-07T00:59:50.811Z,54.08
2018-04-07T01:00:50.826Z,54.08
2018-04-07T01:01:50.833Z,54.08
2018-04-07T01:02:50.844Z,54.08
2018-04-07T01:03:50.844Z,53.80
2018-04-07T01:04:50.910Z,54.08
2018-04-07T01:05:50.849Z,54.66
2018-04-07T01:06:50.868Z,54.47
2018-04-07T01:07:50.876Z,54.66
2018-04-07T01:08:50.909Z,54.85
2018-04-07T01:09:50.874Z,54.75
2018-04-07T01:10:50.884Z,54.85
2018-04-07T01:11:50.889Z,54.75
2018-04-07T01:12:50.902Z,55.04
2018-04-07T01:13:50.902Z,55.04
2018-04-07T01:14:50.920Z,54.75
2018-04-07T01:15:50.919Z,54.94
2018-04-07T01:16:50.921Z,54.94
2018-04-07T01:17:50.934Z,54.85
2018-04-07T01:18:50.939Z,54.56
2018-04-07T01:19:51.003Z,54.66
2018-04-07T01:20:50.949Z,54.85
2018-04-07T01:21:50.952Z,55.42
2018-04-07T01:22:50.960Z,55.13
2018-04-07T01:23:50.966Z,55.04
2018-04-07T01:24:50.968Z,55.22
2018-04-07T01:25:50.982Z,55.22
2018-04-07T01:26:50.986Z,55.22
2018-04-07T01:27:50.990Z,55.22
2018-04-07T01:28:50.999Z,55.42
2018-04-07T01:29:51.007Z,55.51
2018-04-07T01:30:51.033Z,55.70
2018-04-07T01:31:51.016Z,55.22
2018-04-07T01:32:51.062Z,55.42
2018-04-07T01:33:51.045Z,55.42
2018-04-07T01:34:51.036Z,55.42
2018-04-07T01:35:51.041Z,55.42
2018-04-07T01:36:51.048Z,55.22
2018-04-07T01:37:51.073Z,55.70
2018-04-07T01:38:51.061Z,55.80
2018-04-07T01:39:51.065Z,55.80
2018-04-07T01:40:51.101Z,55.51
2018-04-07T01:41:51.117Z,55.70
2018-04-07T01:42:51.127Z,55.70
2018-04-07T01:43:51.114Z,55.80
2018-04-07T01:44:51.103Z,56.09
2018-04-07T01:45:51.113Z,56.09
2018-04-07T01:46:51.111Z,56.09
2018-04-07T01:47:51.127Z,55.90
2018-04-07T01:48:51.127Z,55.90
2018-04-07T01:49:51.127Z,56.09
2018-04-07T01:50:51.144Z,56.09
2018-04-07T01:51:51.151Z,55.70
2018-04-07T01:52:51.183Z,56.27
2018-04-07T01:53:51.149Z,56.18
2018-04-07T01:54:51.160Z,55.99
2018-04-07T01:55:51.169Z,56.18
2018-04-07T01:56:51.169Z,55.99
2018-04-07T01:57:51.179Z,56.27
2018-04-07T01:58:51.190Z,56.46
2018-04-07T01:59:51.196Z,56.46
2018-04-07T02:00:51.198Z,56.18
2018-04-07T02:01:51.209Z,56.18
2018-04-07T02:02:51.212Z,56.09
2018-04-07T02:03:51.220Z,56.37
2018-04-07T02:04:51.222Z,56.37
2018-04-07T02:05:51.231Z,56.18
2018-04-07T02:06:51.233Z,56.18
2018-04-07T02:07:51.241Z,56.15
2018-04-07T02:08:51.248Z,56.53
2018-04-07T02:09:51.254Z,56.82
2018-04-07T02:10:51.279Z,56.82
2018-04-07T02:11:51.270Z,56.92
2018-04-07T02:12:51.274Z,56.92
2018-04-07T02:13:51.277Z,56.72
2018-04-07T02:14:51.296Z,56.92
2018-04-07T02:15:51.290Z,57.29
2018-04-07T02:16:51.308Z,57.20
2018-04-07T02:17:51.302Z,57.10
2018-04-07T02:18:51.315Z,57.20
2018-04-07T02:19:51.321Z,57.29
2018-04-07T02:20:51.432Z,57.39
2018-04-07T02:21:51.326Z,57.67
2018-04-07T02:22:51.336Z,57.39
2018-04-07T02:23:51.389Z,57.58
2018-04-07T02:24:51.344Z,57.96
2018-04-07T02:25:51.350Z,58.06
2018-04-07T02:26:51.381Z,57.87
2018-04-07T02:27:51.366Z,58.15
2018-04-07T02:28:51.380Z,57.96
2018-04-07T02:29:51.377Z,57.96
2018-04-07T02:30:51.385Z,58.53
2018-04-07T02:31:51.388Z,57.87
2018-04-07T02:32:51.400Z,58.44
2018-04-07T02:33:51.462Z,58.44
2018-04-07T02:34:51.407Z,58.25
2018-04-07T02:35:51.420Z,58.44
2018-04-07T02:36:51.418Z,58.31
2018-04-07T02:37:51.430Z,58.12
2018-04-07T02:38:51.444Z,58.59
2018-04-07T02:39:51.450Z,58.69
2018-04-07T02:40:51.438Z,58.22
2018-04-07T02:41:51.450Z,58.59
2018-04-07T02:42:51.450Z,58.50
2018-04-07T02:43:51.560Z,58.98
2018-04-07T02:44:51.464Z,58.69
2018-04-07T02:45:51.470Z,58.59
2018-04-07T02:46:51.482Z,58.98
2018-04-07T02:47:51.482Z,58.98
2018-04-07T02:48:51.495Z,58.50
2018-04-07T02:49:51.501Z,58.59
2018-04-07T02:50:51.503Z,58.98
2018-04-07T02:51:51.511Z,58.98
2018-04-07T02:52:51.516Z,59.07
2018-04-07T02:53:51.522Z,59.17
2018-04-07T02:54:51.524Z,58.88
2018-04-07T02:55:51.530Z,59.27
2018-04-07T02:56:51.544Z,59.17
2018-04-07T02:57:51.541Z,59.17
2018-04-07T02:58:51.551Z,58.88
2018-04-07T02:59:51.568Z,58.88
2018-04-07T03:00:51.568Z,58.98
2018-04-07T03:01:51.579Z,59.07
2018-04-07T03:02:51.582Z,59.07
2018-04-07T03:03:51.579Z,59.36
2018-04-07T03:04:51.592Z,59.17
2018-04-07T03:05:51.591Z,59.07
2018-04-07T03:06:51.592Z,59.27
2018-04-07T03:07:51.604Z,59.27
2018-04-07T03:08:51.607Z,59.45
2018-04-07T03:09:51.614Z,59.64
2018-04-07T03:10:51.616Z,59.93
2018-04-07T03:11:51.643Z,59.64
2018-04-07T03:12:51.632Z,59.55
2018-04-07T03:13:51.634Z,59.74
2018-04-07T03:14:51.655Z,59.83
2018-04-07T03:15:51.647Z,59.83
2018-04-07T03:16:51.653Z,59.83
2018-04-07T03:17:51.674Z,59.07
2018-04-07T03:18:51.662Z,59.74
2018-04-07T03:19:51.664Z,59.74
2018-04-07T03:20:51.675Z,59.83
2018-04-07T03:21:51.683Z,59.83
2018-04-07T03:22:51.684Z,60.02
2018-04-07T03:23:51.692Z,59.93
2018-04-07T03:24:51.712Z,59.93
2018-04-07T03:25:51.701Z,59.93
2018-04-07T03:26:51.715Z,60.31
2018-04-07T03:27:51.731Z,60.02
2018-04-07T03:28:51.728Z,60.38
2018-04-07T03:29:51.728Z,59.99
2018-04-07T03:30:51.732Z,60.38
2018-04-07T03:31:51.740Z,60.28
2018-04-07T03:32:51.744Z,60.28
2018-04-07T03:33:51.751Z,60.28
2018-04-07T03:34:51.804Z,60.66
2018-04-07T03:35:51.764Z,60.75
2018-04-07T03:36:51.768Z,60.85
2018-04-07T03:37:51.783Z,60.47
2018-04-07T03:38:51.785Z,60.47
2018-04-07T03:39:51.790Z,60.57
2018-04-07T03:40:51.795Z,60.66
2018-04-07T03:41:51.798Z,60.75
2018-04-07T03:42:51.807Z,60.66
2018-04-07T03:43:51.816Z,60.75
2018-04-07T03:44:51.823Z,60.85
2018-04-07T03:45:51.835Z,60.66
2018-04-07T03:46:51.824Z,60.94
2018-04-07T03:47:51.834Z,61.42
2018-04-07T03:48:51.834Z,61.52
2018-04-07T03:49:51.840Z,61.42
2018-04-07T03:50:51.850Z,61.52
2018-04-07T03:51:51.870Z,61.04
2018-04-07T03:52:51.917Z,61.13
2018-04-07T03:53:51.881Z,61.61
2018-04-07T03:54:51.874Z,61.42
2018-04-07T03:55:51.879Z,61.23
2018-04-07T03:56:51.895Z,61.90
2018-04-07T03:57:51.889Z,61.80
2018-04-07T03:58:51.897Z,61.80
2018-04-07T03:59:51.903Z,61.71
2018-04-07T04:00:51.908Z,61.52
2018-04-07T04:01:51.917Z,61.52
2018-04-07T04:02:52.075Z,61.71
2018-04-07T04:03:51.929Z,61.61
2018-04-07T04:04:51.927Z,61.71
2018-04-07T04:05:51.935Z,61.52
2018-04-07T04:06:51.942Z,61.71
2018-04-07T04:07:51.946Z,61.61
2018-04-07T04:08:51.959Z,61.61
2018-04-07T04:09:51.958Z,61.61
2018-04-07T04:10:51.965Z,61.71
2018-04-07T04:11:51.975Z,61.90
2018-04-07T04:12:51.980Z,61.90
2018-04-07T04:13:51.981Z,61.71
2018-04-07T04:14:51.988Z,61.77
2018-04-07T04:15:52.007Z,61.68
2018-04-07T04:16:52.004Z,61.96
2018-04-07T04:17:52.007Z,61.90
2018-04-07T04:18:52.017Z,61.87
2018-04-07T04:19:52.023Z,62.24
2018-04-07T04:20:52.025Z,62.15
2018-04-07T04:21:52.033Z,62.24
2018-04-07T04:22:52.039Z,62.34
2018-04-07T04:23:52.045Z,62.24
2018-04-07T04:24:52.060Z,62.27
2018-04-07T04:25:52.055Z,62.24
2018-04-07T04:26:52.067Z,62.43
2018-04-07T04:27:52.071Z,62.24
2018-04-07T04:28:52.076Z,62.15
2018-04-07T04:29:52.089Z,61.96
2018-04-07T04:30:52.090Z,62.43
2018-04-07T04:31:52.114Z,62.34
2018-04-07T04:32:52.100Z,62.43
2018-04-07T04:33:52.103Z,62.81
2018-04-07T04:34:52.112Z,62.53
2018-04-07T04:35:52.114Z,62.91
2018-04-07T04:36:52.121Z,63.01
2018-04-07T04:37:52.127Z,62.91
2018-04-07T04:38:52.133Z,62.81
2018-04-07T04:39:52.141Z,62.91
2018-04-07T04:40:52.146Z,62.91
2018-04-07T04:41:52.152Z,62.81
2018-04-07T04:42:52.153Z,62.81
2018-04-07T04:43:52.195Z,62.81
2018-04-07T04:44:52.168Z,62.91
2018-04-07T04:45:52.176Z,63.39
2018-04-07T04:46:52.177Z,63.01
2018-04-07T04:47:52.182Z,63.01
2018-04-07T04:48:52.189Z,63.10
2018-04-07T04:49:52.205Z,62.81
2018-04-07T04:50:52.205Z,63.29
2018-04-07T04:51:52.224Z,63.39
2018-04-07T04:52:52.213Z,63.29
2018-04-07T04:53:52.329Z,62.81
2018-04-07T04:54:52.228Z,62.91
2018-04-07T04:55:52.229Z,62.91
2018-04-07T04:56:52.232Z,63.48
2018-04-07T04:57:52.243Z,63.20
2018-04-07T04:58:52.261Z,63.48
2018-04-07T04:59:52.252Z,63.29
2018-04-07T05:00:52.257Z,63.29
2018-04-07T05:01:52.262Z,63.20
2018-04-07T05:02:52.270Z,63.29
2018-04-07T05:03:52.275Z,63.48
2018-04-07T05:04:52.323Z,63.01
2018-04-07T05:05:52.309Z,62.91
2018-04-07T05:06:52.353Z,63.01
2018-04-07T05:07:52.299Z,63.57
2018-04-07T05:08:52.308Z,63.29
2018-04-07T05:09:52.316Z,63.10
2018-04-07T05:10:52.323Z,63.29
2018-04-07T05:11:52.321Z,63.29
2018-04-07T05:12:52.326Z,63.48
2018-04-07T05:13:52.328Z,63.48
2018-04-07T05:14:52.352Z,63.39
2018-04-07T05:15:52.345Z,63.48
2018-04-07T05:16:52.419Z,63.48
2018-04-07T05:17:52.355Z,63.48
2018-04-07T05:18:52.361Z,63.76
2018-04-07T05:19:52.370Z,63.76
2018-04-07T05:20:52.373Z,63.48
2018-04-07T05:21:52.380Z,63.39
2018-04-07T05:22:52.382Z,63.39
2018-04-07T05:23:52.390Z,63.39
2018-04-07T05:24:52.396Z,63.39
2018-04-07T05:25:52.396Z,63.86
2018-04-07T05:26:52.403Z,63.57
2018-04-07T05:27:52.412Z,63.10
2018-04-07T05:28:52.415Z,63.29
2018-04-07T05:29:52.426Z,63.29
2018-04-07T05:30:52.432Z,63.29
2018-04-07T05:31:52.439Z,63.29
2018-04-07T05:32:52.452Z,63.48
2018-04-07T05:33:52.442Z,63.39
2018-04-07T05:34:52.457Z,63.20
2018-04-07T05:35:52.464Z,63.48
2018-04-07T05:36:52.468Z,63.04
2018-04-07T05:37:52.470Z,63.04
2018-04-07T05:38:52.484Z,62.85
2018-04-07T05:39:52.492Z,62.85
2018-04-07T05:40:52.485Z,63.04
2018-04-07T05:41:52.497Z,63.42
2018-04-07T05:42:52.499Z,63.04
2018-04-07T05:43:52.505Z,62.94
2018-04-07T05:44:52.508Z,63.32
2018-04-07T05:45:52.559Z,63.51
2018-04-07T05:46:52.535Z,63.13
2018-04-07T05:47:52.560Z,63.42
2018-04-07T05:48:52.529Z,63.42
2018-04-07T05:49:52.540Z,63.42
2018-04-07T05:50:52.547Z,63.42
2018-04-07T05:51:52.550Z,63.42
2018-04-07T05:52:52.557Z,63.60
2018-04-07T05:53:52.568Z,63.32
2018-04-07T05:54:52.567Z,63.51
2018-04-07T05:55:52.578Z,63.60
2018-04-07T05:56:52.578Z,63.23
2018-04-07T05:57:52.693Z,63.60
2018-04-07T05:58:52.599Z,63.51
2018-04-07T05:59:52.595Z,63.32
2018-04-07T06:00:52.622Z,63.04
2018-04-07T06:01:52.610Z,63.32
2018-04-07T06:02:52.618Z,63.32
2018-04-07T06:03:52.619Z,63.51
2018-04-07T06:04:52.634Z,63.32
2018-04-07T06:05:52.645Z,63.23
2018-04-07T06:06:52.645Z,63.32
2018-04-07T06:07:52.651Z,63.23
2018-04-07T06:08:52.658Z,63.13
2018-04-07T06:09:52.659Z,63.32
2018-04-07T06:10:52.669Z,63.32
2018-04-07T06:11:52.670Z,63.04
2018-04-07T06:12:52.677Z,63.32
2018-04-07T06:13:52.682Z,63.42
2018-04-07T06:14:52.686Z,63.32
2018-04-07T06:15:52.696Z,63.54
2018-04-07T06:16:52.701Z,63.51
2018-04-07T06:17:52.707Z,63.73
2018-04-07T06:18:52.714Z,63.35
2018-04-07T06:19:52.717Z,63.35
2018-04-07T06:20:52.725Z,63.64
2018-04-07T06:21:52.730Z,63.35
2018-04-07T06:22:52.777Z,63.64
2018-04-07T06:23:52.742Z,62.88
2018-04-07T06:24:52.747Z,62.97
2018-04-07T06:25:52.877Z,62.97
2018-04-07T06:26:52.760Z,63.17
2018-04-07T06:27:52.766Z,62.78
2018-04-07T06:28:52.778Z,62.97
2018-04-07T06:29:52.781Z,62.88
2018-04-07T06:30:52.779Z,62.97
2018-04-07T06:31:52.839Z,62.88
2018-04-07T06:32:52.792Z,62.97
2018-04-07T06:33:52.805Z,62.97
2018-04-07T06:34:52.853Z,62.88
2018-04-07T06:35:52.810Z,62.69
2018-04-07T06:36:52.823Z,62.78
2018-04-07T06:37:52.826Z,62.34
2018-04-07T06:38:52.850Z,62.62
2018-04-07T06:39:52.840Z,62.21
2018-04-07T06:40:52.842Z,62.21
2018-04-07T06:41:52.848Z,62.30
2018-04-07T06:42:52.857Z,61.96
2018-04-07T06:43:52.867Z,62.34
2018-04-07T06:44:52.871Z,62.34
2018-04-07T06:45:52.878Z,61.96
2018-04-07T06:46:52.881Z,61.86
2018-04-07T06:47:52.893Z,61.67
2018-04-07T06:48:52.997Z,62.05
2018-04-07T06:49:52.900Z,61.96
2018-04-07T06:50:52.904Z,61.86
2018-04-07T06:51:52.917Z,61.86
2018-04-07T06:52:52.926Z,61.96
2018-04-07T06:53:52.932Z,62.05
2018-04-07T06:54:52.932Z,61.77
2018-04-07T06:55:52.940Z,61.96
2018-04-07T06:56:52.948Z,61.77
2018-04-07T06:57:52.958Z,61.86
2018-04-07T06:58:52.964Z,61.67
2018-04-07T06:59:52.970Z,61.96
2018-04-07T07:00:52.976Z,61.86
2018-04-07T07:01:53.046Z,61.86
2018-04-07T07:02:52.990Z,61.96
2018-04-07T07:03:52.998Z,61.96
2018-04-07T07:04:52.999Z,61.86
2018-04-07T07:05:53.000Z,61.77
2018-04-07T07:06:53.053Z,61.77
2018-04-07T07:07:53.010Z,61.48
2018-04-07T07:08:53.041Z,61.38
2018-04-07T07:09:53.025Z,61.48
2018-04-07T07:10:53.044Z,61.51
2018-04-07T07:11:53.042Z,61.42
2018-04-07T07:12:53.049Z,61.13
2018-04-07T07:13:53.056Z,61.13
2018-04-07T07:14:53.060Z,61.04
2018-04-07T07:15:53.069Z,61.04
2018-04-07T07:16:53.089Z,60.85
2018-04-07T07:17:53.074Z,60.85
2018-04-07T07:18:53.112Z,60.75
2018-04-07T07:19:53.134Z,60.85
2018-04-07T07:20:53.096Z,60.85
2018-04-07T07:21:53.111Z,60.85
2018-04-07T07:22:53.125Z,60.66
2018-04-07T07:23:53.167Z,60.56
2018-04-07T07:24:53.130Z,60.56
2018-04-07T07:25:53.127Z,60.56
2018-04-07T07:26:53.336Z,60.46
2018-04-07T07:27:53.163Z,60.08
2018-04-07T07:28:53.161Z,60.08
2018-04-07T07:29:53.240Z,60.27
2018-04-07T07:30:53.180Z,60.56
2018-04-07T07:31:53.186Z,60.37
2018-04-07T07:32:53.190Z,60.37
2018-04-07T07:33:53.204Z,60.37
2018-04-07T07:34:53.191Z,59.80
2018-04-07T07:35:53.265Z,59.13
2018-04-07T07:36:53.214Z,59.70
2018-04-07T07:37:53.212Z,60.40
2018-04-07T07:38:53.245Z,60.30
2018-04-07T07:39:53.354Z,60.02
2018-04-07T07:40:53.257Z,60.21
2018-04-07T07:41:53.297Z,60.30
2018-04-07T07:42:53.335Z,59.92
2018-04-07T07:43:53.253Z,60.49
2018-04-07T07:44:53.270Z,60.02
2018-04-07T07:45:53.273Z,59.92
2018-04-07T07:46:53.289Z,60.21
2018-04-07T07:47:53.288Z,60.11
2018-04-07T07:48:53.300Z,59.92
2018-04-07T07:49:53.334Z,60.49
2018-04-07T07:50:53.351Z,60.02
2018-04-07T07:51:53.316Z,59.92
2018-04-07T07:52:53.352Z,59.83
2018-04-07T07:53:53.318Z,59.83
2018-04-07T07:54:53.325Z,59.64
2018-04-07T07:55:53.351Z,59.54
2018-04-07T07:56:53.344Z,59.16
2018-04-07T07:57:53.359Z,59.06
2018-04-07T07:58:53.359Z,59.06
2018-04-07T07:59:53.383Z,58.87
2018-04-07T08:00:53.367Z,58.97
2018-04-07T08:01:53.369Z,59.35
2018-04-07T08:02:53.383Z,59.26
2018-04-07T08:03:53.389Z,59.16
2018-04-07T08:04:53.393Z,59.26
2018-04-07T08:05:53.402Z,59.06
2018-04-07T08:06:53.408Z,59.35
2018-04-07T08:07:53.518Z,59.16
2018-04-07T08:08:53.421Z,59.35
2018-04-07T08:09:53.439Z,58.87
2018-04-07T08:10:53.439Z,58.69
2018-04-07T08:11:53.440Z,58.81
2018-04-07T08:12:53.469Z,58.97
2018-04-07T08:13:53.476Z,58.81
2018-04-07T08:14:53.465Z,58.72
2018-04-07T08:15:53.471Z,59.09
2018-04-07T08:16:53.483Z,58.72
2018-04-07T08:17:53.489Z,58.62
2018-04-07T08:18:53.488Z,58.33
2018-04-07T08:19:53.508Z,58.72
2018-04-07T08:20:53.541Z,58.81
2018-04-07T08:21:53.531Z,58.81
2018-04-07T08:22:53.528Z,58.43
2018-04-07T08:23:53.527Z,58.72
2018-04-07T08:24:53.532Z,58.43
2018-04-07T08:25:53.538Z,58.81
2018-04-07T08:26:53.551Z,58.62
2018-04-07T08:27:53.559Z,58.62
2018-04-07T08:28:53.571Z,58.62
2018-04-07T08:29:53.577Z,57.28
2018-04-07T08:30:53.640Z,57.28
2018-04-07T08:31:53.583Z,57.19
2018-04-07T08:32:53.591Z,57.19
2018-04-07T08:33:53.601Z,57.67
2018-04-07T08:34:53.617Z,57.67
2018-04-07T08:35:53.615Z,57.09
2018-04-07T08:36:53.614Z,56.81
2018-04-07T08:37:53.629Z,57.28
2018-04-07T08:38:53.630Z,57.67
2018-04-07T08:39:53.637Z,57.57
2018-04-07T08:40:53.646Z,57.38
2018-04-07T08:41:53.673Z,57.48
2018-04-07T08:42:53.673Z,57.50
2018-04-07T08:43:53.698Z,57.31
2018-04-07T08:44:53.673Z,57.31
2018-04-07T08:45:53.690Z,57.31
2018-04-07T08:46:53.696Z,56.74
2018-04-07T08:47:53.696Z,57.03
2018-04-07T08:48:53.716Z,56.93
2018-04-07T08:49:53.720Z,56.26
2018-04-07T08:50:53.734Z,57.03
2018-04-07T08:51:53.738Z,56.84
2018-04-07T08:52:53.753Z,56.46
2018-04-07T08:53:53.746Z,56.17
2018-04-07T08:54:53.750Z,56.36
2018-04-07T08:55:53.757Z,56.26
2018-04-07T08:56:53.762Z,56.17
2018-04-07T08:57:53.796Z,56.36
2018-04-07T08:58:53.790Z,56.07
2018-04-07T08:59:53.808Z,56.07
2018-04-07T09:00:53.796Z,55.98
2018-04-07T09:01:53.821Z,56.07
2018-04-07T09:02:53.825Z,56.65
2018-04-07T09:03:53.837Z,56.55
2018-04-07T09:04:53.819Z,56.84
2018-04-07T09:05:53.827Z,56.07
2018-04-07T09:06:53.839Z,56.20
2018-04-07T09:07:53.862Z,55.72
2018-04-07T09:08:53.979Z,55.62
2018-04-07T09:09:53.854Z,55.82
2018-04-07T09:10:53.877Z,55.62
2018-04-07T09:11:53.885Z,55.91
2018-04-07T09:12:53.883Z,56.10
2018-04-07T09:13:53.890Z,55.91
2018-04-07T09:14:53.895Z,55.91
2018-04-07T09:15:53.903Z,55.53
2018-04-07T09:16:53.915Z,55.72
2018-04-07T09:17:53.915Z,55.91
2018-04-07T09:18:53.922Z,55.91
2018-04-07T09:19:53.937Z,55.91
2018-04-07T09:20:53.944Z,55.82
2018-04-07T09:21:54.007Z,55.43
2018-04-07T09:22:53.955Z,55.05
2018-04-07T09:23:53.967Z,54.48
2018-04-07T09:24:53.969Z,54.96
2018-04-07T09:25:53.982Z,55.53
2018-04-07T09:26:53.984Z,55.62
2018-04-07T09:27:53.998Z,55.34
2018-04-07T09:28:53.997Z,54.77
2018-04-07T09:29:54.012Z,54.48
2018-04-07T09:30:54.015Z,54.29
2018-04-07T09:31:54.038Z,55.05
2018-04-07T09:32:54.039Z,55.05
2018-04-07T09:33:54.044Z,55.05
2018-04-07T09:34:54.048Z,54.41
2018-04-07T09:35:54.054Z,54.22
2018-04-07T09:36:54.058Z,54.50
2018-04-07T09:37:54.065Z,54.99
2018-04-07T09:38:54.072Z,54.96
2018-04-07T09:39:54.085Z,54.22
2018-04-07T09:40:54.091Z,53.93
2018-04-07T09:41:54.099Z,54.22
2018-04-07T09:42:54.112Z,53.45
2018-04-07T09:43:54.111Z,53.55
2018-04-07T09:44:54.122Z,54.03
2018-04-07T09:45:54.133Z,54.32
2018-04-07T09:46:54.190Z,54.03
2018-04-07T09:47:54.148Z,54.89
2018-04-07T09:48:54.161Z,54.89
2018-04-07T09:49:54.177Z,54.50
2018-04-07T09:50:54.208Z,54.70
2018-04-07T09:51:54.174Z,54.70
2018-04-07T09:52:54.182Z,54.41
2018-04-07T09:53:54.196Z,54.25
2018-04-07T09:54:54.204Z,53.96
2018-04-07T09:55:54.251Z,53.29
2018-04-07T09:56:54.228Z,53.10
2018-04-07T09:57:54.238Z,53.00
2018-04-07T09:58:54.233Z,53.20
2018-04-07T09:59:54.256Z,53.39
2018-04-07T10:00:54.248Z,53.89
2018-04-07T10:01:54.255Z,52.17
2018-04-07T10:02:54.288Z,51.12
2018-04-07T10:03:54.278Z,51.31
2018-04-07T10:04:54.287Z,52.08
2018-04-07T10:05:54.299Z,52.08
2018-04-07T10:06:54.305Z,51.79
2018-04-07T10:07:54.318Z,51.60
2018-04-07T10:08:54.313Z,51.60
2018-04-07T10:09:54.319Z,50.45
2018-04-07T10:10:54.341Z,50.74
2018-04-07T10:11:54.340Z,51.12
2018-04-07T10:12:54.351Z,51.53
2018-04-07T10:13:54.354Z,50.38
2018-04-07T10:14:54.369Z,50.29
2018-04-07T10:15:54.373Z,50.76
2018-04-07T10:16:54.375Z,50.57
2018-04-07T10:17:54.389Z,50.00
2018-04-07T10:18:54.396Z,49.71
2018-04-07T10:19:54.976Z,48.85
2018-04-07T10:20:54.431Z,49.62
2018-04-07T10:21:54.418Z,49.62
2018-04-07T10:22:54.430Z,49.04
2018-04-07T10:23:54.450Z,49.62
2018-04-07T10:24:54.458Z,49.71
2018-04-07T10:25:54.460Z,50.38
2018-04-07T10:26:54.470Z,49.64
2018-04-07T10:27:54.485Z,49.26
2018-04-07T10:28:54.532Z,49.74
2018-04-07T10:29:54.526Z,50.21
2018-04-07T10:30:54.535Z,49.93
2018-04-07T10:31:54.526Z,48.68
2018-04-07T10:32:54.529Z,48.49
2018-04-07T10:33:54.524Z,48.68
2018-04-07T10:34:54.564Z,48.68
2018-04-07T10:35:54.555Z,48.88
2018-04-07T10:36:54.553Z,49.09
2018-04-07T10:37:54.558Z,49.76
2018-04-07T10:38:54.571Z,49.19
2018-04-07T10:39:54.595Z,49.48
2018-04-07T10:40:54.599Z,49.69
2018-04-07T10:41:54.620Z,49.11
2018-04-07T10:42:54.609Z,49.88
2018-04-07T10:43:54.618Z,48.93
2018-04-07T10:44:54.660Z,48.64
2018-04-07T10:45:54.639Z,47.39
2018-04-07T10:46:54.677Z,46.82
2018-04-07T10:47:54.659Z,47.61
2018-04-07T10:48:54.669Z,46.75
2018-04-07T10:49:54.678Z,46.94
2018-04-07T10:50:54.697Z,46.84
2018-04-07T10:51:54.704Z,47.71
2018-04-07T10:52:54.711Z,47.80
2018-04-07T10:53:54.726Z,48.18
2018-04-07T10:54:54.744Z,47.80
2018-04-07T10:55:54.744Z,47.34
2018-04-07T10:56:54.772Z,47.63
2018-04-07T10:57:54.774Z,47.53
2018-04-07T10:58:54.784Z,47.73
2018-04-07T10:59:54.846Z,47.34
2018-04-07T11:00:54.800Z,47.44
2018-04-07T11:01:54.813Z,47.34
2018-04-07T11:02:54.844Z,47.56
2018-04-07T11:03:54.845Z,47.37
2018-04-07T11:04:54.849Z,47.17
2018-04-07T11:05:54.869Z,47.08
2018-04-07T11:06:54.879Z,47.20
2018-04-07T11:07:54.988Z,46.62
2018-04-07T11:08:54.906Z,47.03
2018-04-07T11:09:54.927Z,46.00
2018-04-07T11:10:54.935Z,45.61
2018-04-07T11:11:54.947Z,45.14
2018-04-07T11:12:54.963Z,43.70
2018-04-07T11:13:54.978Z,44.17
2018-04-07T11:14:54.998Z,43.91
2018-04-07T11:15:55.026Z,43.26
2018-04-07T11:16:55.036Z,43.84
2018-04-07T11:17:55.101Z,43.74
2018-04-07T11:18:55.071Z,43.57
2018-04-07T11:19:55.091Z,42.80
2018-04-07T11:20:55.110Z,42.70
2018-04-07T11:21:55.126Z,42.33
2018-04-07T11:22:55.141Z,41.95
2018-04-07T11:23:55.163Z,41.38
2018-04-07T11:24:55.183Z,41.59
2018-04-07T11:25:55.203Z,40.24
2018-04-07T11:26:55.266Z,39.56
2018-04-07T11:27:55.243Z,39.47
2018-04-07T11:28:55.265Z,39.20
2018-04-07T11:29:55.301Z,39.20
2018-04-07T11:30:55.301Z,39.59
2018-04-07T11:31:55.320Z,39.20
2018-04-07T11:32:55.366Z,38.81
2018-04-07T11:33:55.369Z,37.48
2018-04-07T11:34:55.415Z,38.45
2018-04-07T11:35:55.409Z,37.01
2018-04-07T11:36:55.429Z,37.39
2018-04-07T11:37:55.453Z,36.52
2018-04-07T11:38:55.471Z,36.93
2018-04-07T11:39:55.518Z,36.54
2018-04-07T11:40:55.519Z,36.25
2018-04-07T11:41:55.547Z,37.31
2018-04-07T11:42:55.569Z,36.63
2018-04-07T11:43:55.587Z,35.86
2018-04-07T11:44:55.605Z,35.58
2018-04-07T11:45:55.640Z,35.30
2018-04-07T11:46:55.797Z,33.86
2018-04-07T11:47:55.685Z,33.47
2018-04-07T11:48:55.695Z,34.36
2018-04-07T11:49:55.728Z,33.68
2018-04-07T11:50:55.743Z,33.29
2018-04-07T11:51:55.766Z,32.06
2018-04-07T11:52:55.784Z,31.86
2018-04-07T11:53:55.815Z,32.36
2018-04-07T11:54:55.844Z,31.20
2018-04-07T11:55:55.864Z,30.04
2018-04-07T11:56:55.895Z,30.24
2018-04-07T11:57:55.900Z,31.40
2018-04-07T11:58:55.929Z,32.75
2018-04-07T11:59:55.952Z,32.26
2018-04-07T12:00:55.978Z,31.40
2018-04-07T12:01:56.004Z,31.49
2018-04-07T12:02:56.020Z,31.59
2018-04-07T12:03:56.058Z,31.98
2018-04-07T12:04:56.078Z,32.46
2018-04-07T12:05:56.091Z,31.98
2018-04-07T12:06:56.128Z,31.89
2018-04-07T12:07:56.143Z,31.22
2018-04-07T12:08:56.158Z,30.36
2018-04-07T12:09:56.186Z,30.46
2018-04-07T12:10:56.220Z,31.25
2018-04-07T12:11:56.235Z,30.96
2018-04-07T12:12:56.267Z,30.86
2018-04-07T12:13:56.345Z,30.55
2018-04-07T12:14:56.313Z,31.71
2018-04-07T12:15:56.329Z,31.83
2018-04-07T12:16:56.352Z,31.52
2018-04-07T12:17:56.378Z,31.91
2018-04-07T12:18:56.469Z,32.01
2018-04-07T12:19:56.430Z,31.44
2018-04-07T12:20:56.458Z,31.62
2018-04-07T12:21:56.467Z,31.33
2018-04-07T12:22:56.498Z,31.43
2018-04-07T12:23:56.526Z,31.73
2018-04-07T12:24:56.549Z,31.25
2018-04-07T12:25:56.625Z,30.76
2018-04-07T12:26:56.592Z,31.34
2018-04-07T12:27:56.826Z,30.78
2018-04-07T12:28:56.694Z,30.29
2018-04-07T12:29:56.680Z,30.10
2018-04-07T12:30:56.770Z,30.29
2018-04-07T12:31:56.730Z,30.18
2018-04-07T12:32:56.932Z,30.20
2018-04-07T12:33:57.044Z,29.13
2018-04-07T12:34:56.787Z,28.56
2018-04-07T12:35:56.908Z,29.44
2018-04-07T12:36:57.000Z,28.66
2018-04-07T12:37:57.006Z,29.15
2018-04-07T12:38:57.011Z,28.56
2018-04-07T12:39:58.049Z,29.05
2018-04-07T12:40:56.930Z,28.08
2018-04-07T12:41:56.968Z,27.89
2018-04-07T12:42:57.135Z,28.76
2018-04-07T12:43:57.240Z,28.18
2018-04-07T12:44:57.039Z,28.47
2018-04-07T12:45:57.057Z,28.56
2018-04-07T12:46:57.079Z,28.86
2018-04-07T12:47:57.108Z,28.76
2018-04-07T12:48:57.344Z,29.36
2018-04-07T12:49:57.168Z,28.68
2018-04-07T12:50:57.172Z,29.46
2018-04-07T12:51:57.194Z,29.46
2018-04-07T12:52:57.221Z,29.08